Time;durP1;ratioP1;P1;durP2;ratioP2;P2;SDS_P1;SDS_P2;PMS_P1;PMS_P2;Temp;Humidity;BMP_temperature;BMP_pressure;BME280_temperature;BME280_humidity;BME280_pressure;Samples;Min_cycle;Max_cycle;Signal;HPM_P1;HPM_P2
2022/04/28 00:00:51;;;;;;;7.63;4.47;;;8.80;99.90;;;;;;4957455;29;20181;-83
2022/04/28 00:03:17;;;;;;;7.73;4.37;;;8.70;99.90;;;;;;4956724;29;20233;-83
2022/04/28 00:05:43;;;;;;;11.00;5.17;;;8.60;99.90;;;;;;4956431;29;20185;-82
2022/04/28 00:08:10;;;;;;;7.57;4.83;;;8.50;99.90;;;;;;4957314;29;20233;-83
2022/04/28 00:10:37;;;;;;;10.57;5.20;;;8.50;99.90;;;;;;4958289;28;20171;-85
2022/04/28 00:13:05;;;;;;;5.33;4.40;;;8.40;99.90;;;;;;4956926;29;20220;-83
2022/04/28 00:15:31;;;;;;;7.27;4.67;;;8.40;99.90;;;;;;4957215;29;20185;-83
2022/04/28 00:17:57;;;;;;;6.03;4.77;;;8.30;99.90;;;;;;4958141;28;20688;-86
2022/04/28 00:20:23;;;;;;;7.53;5.27;;;8.30;99.90;;;;;;4956841;29;20241;-83
2022/04/28 00:22:49;;;;;;;9.10;4.73;;;8.40;99.90;;;;;;4956000;29;20276;-83
2022/04/28 00:25:15;;;;;;;9.23;5.23;;;8.40;99.90;;;;;;4957583;29;20277;-83
2022/04/28 00:27:40;;;;;;;8.27;4.87;;;8.30;99.90;;;;;;4957774;29;20209;-84
2022/04/28 00:30:07;;;;;;;8.83;5.13;;;8.20;99.90;;;;;;4957194;29;20639;-83
2022/04/28 00:32:34;;;;;;;9.37;4.47;;;8.10;99.90;;;;;;4956716;29;20574;-83
2022/04/28 00:34:59;;;;;;;6.70;4.83;;;8.10;99.90;;;;;;4948420;29;20195;-83
2022/04/28 00:37:25;;;;;;;7.30;5.00;;;8.10;99.90;;;;;;4937548;29;20526;-84
2022/04/28 00:39:52;;;;;;;10.83;5.03;;;8.10;99.90;;;;;;4937119;29;20186;-83
2022/04/28 00:42:19;;;;;;;6.17;4.57;;;8.00;99.90;;;;;;4937353;29;20185;-83
2022/04/28 00:44:46;;;;;;;8.33;4.83;;;8.00;99.90;;;;;;4938679;29;20565;-83
2022/04/28 00:47:12;;;;;;;8.53;4.67;;;8.00;99.90;;;;;;4938697;29;20265;-83
2022/04/28 00:52:23;;;;;;;9.23;4.80;;;7.80;99.90;;;;;;4957501;29;20275;-83
2022/04/28 00:54:51;;;;;;;6.20;4.60;;;7.90;99.90;;;;;;4956086;29;20591;-83
2022/04/28 00:57:18;;;;;;;7.23;4.80;;;7.90;99.90;;;;;;4956367;29;20232;-82
2022/04/28 00:59:45;;;;;;;11.37;5.13;;;7.90;99.90;;;;;;4956230;29;20181;-83
2022/04/28 01:02:12;;;;;;;7.83;4.77;;;7.90;99.90;;;;;;4956241;29;20536;-83
2022/04/28 01:07:24;;;;;;;11.43;5.27;;;7.70;99.90;;;;;;5179253;23;20243;-80
2022/04/28 01:09:50;;;;;;;8.83;5.00;;;7.60;99.90;;;;;;4917293;29;20241;-81
2022/04/28 01:12:16;;;;;;;8.50;4.80;;;7.60;99.90;;;;;;4918529;29;20641;-81
2022/04/28 01:14:44;;;;;;;8.03;5.03;;;7.50;99.90;;;;;;4918858;29;20710;-81
2022/04/28 01:17:10;;;;;;;10.73;4.73;;;7.40;99.90;;;;;;4900173;29;20175;-80
2022/04/28 01:19:36;;;;;;;7.10;5.00;;;7.40;99.90;;;;;;4900157;29;20175;-81
2022/04/28 01:22:03;;;;;;;6.47;4.90;;;7.40;99.90;;;;;;4900227;29;20187;-86
2022/04/28 01:24:29;;;;;;;8.90;5.00;;;7.50;99.90;;;;;;4906342;29;20232;-85
2022/04/28 01:26:58;;;;;;;7.97;4.83;;;7.40;99.90;;;;;;4918889;29;20186;-82
2022/04/28 01:29:23;;;;;;;7.90;4.53;;;7.40;99.90;;;;;;4933593;29;20210;-81
2022/04/28 01:31:50;;;;;;;9.33;5.20;;;7.50;99.90;;;;;;4924437;29;20270;-84
2022/04/28 01:34:15;;;;;;;7.30;4.77;;;7.40;99.90;;;;;;4919151;29;20652;-89
2022/04/28 01:36:41;;;;;;;9.87;5.33;;;7.40;99.90;;;;;;4917637;29;20187;-82
2022/04/28 01:39:08;;;;;;;8.63;5.00;;;7.30;99.90;;;;;;4917681;29;20254;-80
2022/04/28 01:41:34;;;;;;;7.17;5.20;;;7.10;99.90;;;;;;4918393;29;20175;-82
2022/04/28 01:43:59;;;;;;;9.67;5.40;;;7.00;99.90;;;;;;4918207;29;20209;-81
2022/04/28 01:46:25;;;;;;;6.37;4.90;;;6.90;99.90;;;;;;4923301;29;20272;-80
2022/04/28 01:48:51;;;;;;;8.33;5.17;;;6.90;99.90;;;;;;4936114;29;20229;-80
2022/04/28 01:56:45;;;;;;;10.57;4.77;;;7.00;99.90;;;;;;4918327;29;20593;-80
2022/04/28 01:59:10;;;;;;;6.80;5.00;;;7.10;99.90;;;;;;4918264;29;20182;-80
2022/04/28 02:01:36;;;;;;;8.63;4.90;;;7.20;99.90;;;;;;4918507;29;20167;-82
2022/04/28 02:04:02;;;;;;;6.33;4.67;;;7.00;99.90;;;;;;4918105;29;20218;-82
2022/04/28 02:06:28;;;;;;;8.30;5.20;;;7.00;99.90;;;;;;4937468;29;20222;-80
2022/04/28 02:08:53;;;;;;;13.90;5.70;;;6.90;99.90;;;;;;4937292;29;20604;-80
2022/04/28 02:11:19;;;;;;;11.67;5.17;;;6.80;99.90;;;;;;4937047;29;20173;-81
2022/04/28 02:13:45;;;;;;;12.57;5.77;;;6.70;99.90;;;;;;4936995;29;20181;-80
2022/04/28 02:16:10;;;;;;;6.47;5.00;;;6.60;99.90;;;;;;4936507;29;20262;-81
2022/04/28 02:18:37;;;;;;;11.73;5.13;;;6.50;99.90;;;;;;4937130;29;20182;-81
2022/04/28 02:21:02;;;;;;;8.87;5.10;;;6.50;99.90;;;;;;4936722;29;20182;-80
2022/04/28 02:23:28;;;;;;;8.10;5.30;;;6.50;99.90;;;;;;4935522;29;20186;-79
2022/04/28 02:25:54;;;;;;;12.17;5.60;;;6.60;99.90;;;;;;4935428;29;20194;-80
2022/04/28 02:28:19;;;;;;;10.33;5.77;;;6.60;99.90;;;;;;4936763;29;20217;-80
2022/04/28 02:30:45;;;;;;;10.47;5.27;;;6.60;99.90;;;;;;4930400;29;20609;-80
2022/04/28 02:33:11;;;;;;;9.67;5.10;;;6.60;99.90;;;;;;4917872;29;20178;-80
2022/04/28 02:35:40;;;;;;;9.97;5.30;;;6.60;99.90;;;;;;4918020;29;20521;-81
2022/04/28 02:38:07;;;;;;;7.03;4.93;;;6.60;99.90;;;;;;4917527;29;20194;-80
2022/04/28 02:40:32;;;;;;;9.37;5.27;;;6.70;99.90;;;;;;4917672;29;20269;-81
2022/04/28 02:42:59;;;;;;;12.83;5.77;;;6.60;99.90;;;;;;4917781;29;20471;-81
2022/04/28 02:45:25;;;;;;;10.90;5.20;;;6.50;99.90;;;;;;4932538;29;20435;-83
2022/04/28 02:47:51;;;;;;;9.63;4.97;;;6.50;99.90;;;;;;4917595;29;20181;-79
2022/04/28 02:50:21;;;;;;;8.70;4.70;;;6.50;99.90;;;;;;4917818;29;20179;-80
2022/04/28 02:52:49;;;;;;;9.37;5.80;;;6.40;99.90;;;;;;4916159;29;20332;-80
2022/04/28 02:55:15;;;;;;;6.93;4.67;;;6.30;99.90;;;;;;4916273;29;20197;-81
2022/04/28 02:57:41;;;;;;;7.93;5.20;;;6.30;99.90;;;;;;4917652;29;20178;-80
2022/04/28 03:00:07;;;;;;;9.97;5.43;;;6.40;99.90;;;;;;4915688;29;20509;-82
2022/04/28 03:02:33;;;;;;;8.37;5.23;;;6.40;99.90;;;;;;4925818;29;20182;-81
2022/04/28 03:05:01;;;;;;;8.40;4.93;;;6.50;99.90;;;;;;4936689;29;20185;-79
2022/04/28 03:10:46;;;;;;;10.77;5.37;;;6.30;99.90;;;;;;4936410;29;20261;-80
2022/04/28 03:13:13;;;;;;;8.43;5.30;;;6.20;99.90;;;;;;4935385;29;20178;-80
2022/04/28 03:15:39;;;;;;;7.53;4.83;;;6.10;99.90;;;;;;4935374;29;20234;-81
2022/04/28 03:18:05;;;;;;;9.57;5.13;;;6.10;99.90;;;;;;4936441;29;20228;-80
2022/04/28 03:20:31;;;;;;;9.27;4.63;;;6.10;99.90;;;;;;4935299;29;20247;-80
2022/04/28 03:22:56;;;;;;;11.83;6.20;;;6.20;99.90;;;;;;4936556;29;20604;-83
2022/04/28 03:25:22;;;;;;;8.53;4.93;;;6.10;99.90;;;;;;4923046;29;20183;-80
2022/04/28 03:27:48;;;;;;;8.50;5.03;;;6.00;99.90;;;;;;4917420;29;20514;-84
2022/04/28 03:30:14;;;;;;;12.50;5.20;;;5.90;99.90;;;;;;4916211;29;20190;-81
2022/04/28 03:32:39;;;;;;;10.00;5.53;;;5.80;99.90;;;;;;4917469;29;20509;-81
2022/04/28 03:35:06;;;;;;;9.43;5.00;;;5.80;99.90;;;;;;4919659;29;20190;-81
2022/04/28 03:37:31;;;;;;;10.00;5.23;;;5.70;99.90;;;;;;4921051;29;20519;-82
2022/04/28 03:39:57;;;;;;;9.17;5.67;;;5.70;99.90;;;;;;4920673;29;20179;-80
2022/04/28 03:42:23;;;;;;;10.57;5.03;;;5.60;99.90;;;;;;4920436;29;20629;-82
2022/04/28 03:44:48;;;;;;;9.90;5.40;;;5.60;99.90;;;;;;4919428;29;20230;-83
2022/04/28 03:47:14;;;;;;;10.87;5.37;;;5.60;99.90;;;;;;4920543;29;20178;-80
2022/04/28 03:49:42;;;;;;;9.80;5.30;;;5.60;99.90;;;;;;4902354;29;20215;-82
2022/04/28 03:52:08;;;;;;;8.37;5.30;;;5.50;99.90;;;;;;4901711;29;20164;-80
2022/04/28 03:54:34;;;;;;;7.00;4.83;;;5.60;99.90;;;;;;4900508;29;20183;-81
2022/04/28 03:56:59;;;;;;;11.53;5.50;;;5.50;99.90;;;;;;4901725;29;20178;-80
2022/04/28 03:59:25;;;;;;;9.10;5.77;;;5.50;99.90;;;;;;4901463;29;20187;-80
2022/04/28 04:01:52;;;;;;;7.83;5.40;;;5.60;99.90;;;;;;4901557;29;20163;-80
2022/04/28 04:04:17;;;;;;;12.43;5.27;;;5.50;99.90;;;;;;4904066;29;20538;-80
2022/04/28 04:06:43;;;;;;;13.33;5.43;;;5.50;99.90;;;;;;4939569;29;20224;-81
2022/04/28 04:09:08;;;;;;;9.37;5.53;;;5.40;99.90;;;;;;4939244;29;20217;-87
2022/04/28 04:11:34;;;;;;;12.93;5.70;;;5.40;99.90;;;;;;4938483;29;20189;-88
2022/04/28 04:14:00;;;;;;;10.17;5.60;;;5.40;99.90;;;;;;4939595;29;20184;-81
2022/04/28 04:16:26;;;;;;;10.57;5.30;;;5.40;99.90;;;;;;4938094;29;20526;-84
2022/04/28 04:18:51;;;;;;;11.77;5.70;;;5.30;99.90;;;;;;4927044;29;20186;-80
2022/04/28 04:21:19;;;;;;;9.10;5.70;;;5.40;99.90;;;;;;4920843;29;20178;-83
2022/04/28 04:23:44;;;;;;;9.87;5.33;;;5.50;99.90;;;;;;4920052;29;20186;-82
2022/04/28 04:26:10;;;;;;;11.50;5.50;;;5.50;99.90;;;;;;4919361;29;20174;-81
2022/04/28 04:28:35;;;;;;;10.57;5.37;;;5.50;99.90;;;;;;4919832;29;20311;-82
2022/04/28 04:33:46;;;;;;;15.73;5.67;;;5.40;99.90;;;;;;4919761;29;20197;-81
2022/04/28 04:36:11;;;;;;;7.27;5.23;;;5.40;99.90;;;;;;4920084;29;20179;-80
2022/04/28 04:38:37;;;;;;;7.13;5.33;;;5.40;99.90;;;;;;4918328;29;20179;-82
2022/04/28 04:41:03;;;;;;;11.20;6.37;;;5.50;99.90;;;;;;4919805;29;20186;-80
2022/04/28 04:43:28;;;;;;;10.77;5.40;;;5.60;99.90;;;;;;4918210;29;20179;-81
2022/04/28 04:45:54;;;;;;;11.50;5.93;;;5.50;99.90;;;;;;4918488;29;20332;-80
2022/04/28 04:48:21;;;;;;;8.53;4.90;;;5.50;99.90;;;;;;4918975;29;20293;-80
2022/04/28 04:50:47;;;;;;;14.73;5.57;;;5.60;99.90;;;;;;4918933;29;20178;-81
2022/04/28 04:53:13;;;;;;;13.17;6.27;;;5.60;99.90;;;;;;4919009;29;20195;-81
2022/04/28 04:55:39;;;;;;;9.13;5.60;;;5.70;99.90;;;;;;4919369;29;20179;-81
2022/04/28 04:58:05;;;;;;;11.17;5.17;;;5.80;99.90;;;;;;4918135;29;20492;-79
2022/04/28 05:00:33;;;;;;;15.27;5.70;;;6.00;99.90;;;;;;4919204;29;20193;-86
2022/04/28 05:02:59;;;;;;;9.10;5.90;;;6.00;99.90;;;;;;4932263;29;20194;-83
2022/04/28 05:05:24;;;;;;;14.10;6.13;;;6.20;99.90;;;;;;4938363;29;20178;-80
2022/04/28 05:07:50;;;;;;;10.93;6.00;;;6.30;99.90;;;;;;4938194;29;20229;-81
2022/04/28 05:10:16;;;;;;;9.50;5.20;;;6.40;99.90;;;;;;4937124;29;20237;-80
2022/04/28 05:12:41;;;;;;;12.17;6.00;;;6.50;99.90;;;;;;4938387;29;20174;-81
2022/04/28 05:15:07;;;;;;;10.70;5.93;;;6.60;99.90;;;;;;4938060;29;20676;-80
2022/04/28 05:17:35;;;;;;;13.70;5.57;;;6.60;99.90;;;;;;4937688;29;20265;-83
2022/04/28 05:20:01;;;;;;;12.23;5.47;;;6.70;99.90;;;;;;4918350;29;20243;-81
2022/04/28 05:22:26;;;;;;;13.80;5.87;;;6.70;99.90;;;;;;4918487;29;20186;-82
2022/04/28 05:24:52;;;;;;;12.83;5.90;;;6.70;99.90;;;;;;4918441;29;20609;-80
2022/04/28 05:27:18;;;;;;;8.50;5.37;;;6.80;99.90;;;;;;4935665;29;20265;-87
2022/04/28 05:29:43;;;;;;;12.53;5.83;;;6.80;99.90;;;;;;4937908;29;20604;-85
2022/04/28 05:32:10;;;;;;;10.00;5.70;;;6.90;99.90;;;;;;4934141;29;20179;-80
2022/04/28 05:34:36;;;;;;;11.40;5.63;;;6.90;99.90;;;;;;4922787;29;20189;-82
2022/04/28 05:37:02;;;;;;;10.43;5.83;;;6.90;99.90;;;;;;4936507;29;20232;-81
2022/04/28 05:39:28;;;;;;;9.80;5.70;;;6.90;99.90;;;;;;4918492;29;20179;-81
2022/04/28 05:41:55;;;;;;;13.17;6.00;;;6.90;99.90;;;;;;4918638;29;20189;-80
2022/04/28 05:47:06;;;;;;;13.23;6.30;;;7.00;99.90;;;;;;4919609;29;20174;-84
2022/04/28 05:49:32;;;;;;;10.73;5.77;;;7.00;99.90;;;;;;4918786;29;20207;-80
2022/04/28 05:52:01;;;;;;;11.77;6.80;;;7.10;99.90;;;;;;4918981;29;20233;-87
2022/04/28 05:54:26;;;;;;;8.83;5.40;;;7.20;99.90;;;;;;4917758;29;20183;-81
2022/04/28 05:56:52;;;;;;;10.03;5.97;;;7.30;99.90;;;;;;4916610;29;20269;-82
2022/04/28 05:59:18;;;;;;;10.10;5.53;;;7.30;99.90;;;;;;4922979;29;20688;-88
2022/04/28 06:01:44;;;;;;;16.93;6.03;;;7.40;99.90;;;;;;4916513;29;20614;-81
2022/04/28 06:04:10;;;;;;;14.17;6.03;;;7.50;99.90;;;;;;4917420;29;20170;-90
2022/04/28 06:06:36;;;;;;;12.90;6.07;;;7.50;99.90;;;;;;4917607;29;20256;-86
2022/04/28 06:09:02;;;;;;;13.97;5.57;;;7.50;99.90;;;;;;4918780;29;20210;-86
2022/04/28 06:11:28;;;;;;;11.70;5.53;;;7.50;99.90;;;;;;4918712;29;20641;-84
2022/04/28 06:13:54;;;;;;;12.00;5.63;;;7.50;99.90;;;;;;4917311;29;20178;-87
2022/04/28 06:16:20;;;;;;;12.23;5.73;;;7.60;99.90;;;;;;4918877;29;20253;-84
2022/04/28 06:18:45;;;;;;;19.47;5.80;;;7.70;99.90;;;;;;4918298;29;20182;-86
2022/04/28 06:21:11;;;;;;;10.90;4.90;;;7.90;99.90;;;;;;4912502;29;20258;-83
2022/04/28 06:23:37;;;;;;;8.47;4.77;;;7.90;99.90;;;;;;4899509;29;20252;-82
2022/04/28 06:26:03;;;;;;;16.90;5.77;;;8.00;99.90;;;;;;4898330;29;20179;-83
2022/04/28 06:28:28;;;;;;;11.70;5.47;;;8.00;99.90;;;;;;4898372;29;20211;-87
2022/04/28 06:30:54;;;;;;;9.67;5.00;;;8.00;99.90;;;;;;4900055;29;20282;-82
2022/04/28 06:33:20;;;;;;;11.73;5.80;;;8.10;99.90;;;;;;4904685;29;20202;-81
2022/04/28 06:35:46;;;;;;;11.70;5.50;;;8.20;99.90;;;;;;4935765;29;20178;-81
2022/04/28 06:38:12;;;;;;;9.87;5.37;;;8.30;99.90;;;;;;4936950;29;20680;-81
2022/04/28 06:40:38;;;;;;;15.67;5.53;;;8.40;99.90;;;;;;4936838;29;20206;-83
2022/04/28 06:43:04;;;;;;;15.77;5.63;;;8.40;99.90;;;;;;4925121;29;20265;-81
2022/04/28 06:45:30;;;;;;;13.90;5.83;;;8.50;99.90;;;;;;4917922;29;20182;-82
2022/04/28 06:47:56;;;;;;;10.93;5.50;;;8.50;99.90;;;;;;4927276;29;20214;-82
2022/04/28 06:50:21;;;;;;;14.03;4.87;;;8.50;99.90;;;;;;4916556;29;20221;-87
2022/04/28 06:52:47;;;;;;;13.23;4.77;;;8.60;99.90;;;;;;4917799;29;20182;-82
2022/04/28 06:55:13;;;;;;;10.53;4.73;;;8.70;99.90;;;;;;4917789;29;20162;-82
2022/04/28 06:57:39;;;;;;;10.87;4.87;;;8.80;99.90;;;;;;4917869;29;20179;-80
2022/04/28 07:00:07;;;;;;;10.80;5.00;;;8.90;99.90;;;;;;4917726;29;20652;-80
2022/04/28 07:02:33;;;;;;;10.87;5.00;;;9.00;99.90;;;;;;4916599;29;20183;-83
2022/04/28 07:04:59;;;;;;;12.27;4.77;;;9.20;99.90;;;;;;4917179;29;20182;-82
2022/04/28 07:07:25;;;;;;;11.07;4.37;;;9.30;99.90;;;;;;4917762;29;20369;-80
2022/04/28 07:09:50;;;;;;;7.67;4.37;;;9.50;99.90;;;;;;4920643;29;20605;-87
2022/04/28 07:12:16;;;;;;;9.47;4.17;;;9.50;99.90;;;;;;4921726;29;20175;-82
2022/04/28 07:14:43;;;;;;;12.43;3.87;;;9.70;99.90;;;;;;4921875;29;20167;-82
2022/04/28 07:17:09;;;;;;;10.43;4.37;;;9.80;99.90;;;;;;4920333;29;20259;-87
2022/04/28 07:19:35;;;;;;;13.30;4.17;;;10.00;99.90;;;;;;4921171;29;20638;-82
2022/04/28 07:22:05;;;;;;;10.63;3.97;;;10.10;99.90;;;;;;4920251;29;20283;-85
2022/04/28 07:24:35;;;;;;;10.70;4.00;;;10.10;99.90;;;;;;4920422;29;20179;-86
2022/04/28 07:27:02;;;;;;;13.80;4.57;;;10.30;99.90;;;;;;4921880;29;20163;-82
2022/04/28 07:29:28;;;;;;;10.40;3.57;;;10.40;99.90;;;;;;4920783;29;20206;-85
2022/04/28 07:32:00;;;;;;;9.33;3.40;;;10.50;99.90;;;;;;4921470;29;20178;-83
2022/04/28 07:34:25;;;;;;;9.77;3.30;;;10.60;99.90;;;;;;4921042;29;20190;-85
2022/04/28 07:36:51;;;;;;;10.25;3.53;;;10.80;99.90;;;;;;4907038;29;20179;-86
2022/04/28 07:39:16;;;;;;;12.23;3.53;;;10.80;99.90;;;;;;4926707;29;20182;-86
2022/04/28 07:41:42;;;;;;;16.20;4.00;;;11.00;99.90;;;;;;4940326;29;20170;-86
2022/04/28 07:44:08;;;;;;;9.95;3.67;;;11.20;99.90;;;;;;4939958;29;20617;-82
2022/04/28 07:46:34;;;;;;;9.45;3.58;;;11.10;99.90;;;;;;4938566;29;20189;-85
2022/04/28 07:49:00;;;;;;;9.43;3.53;;;11.20;99.90;;;;;;4927400;29;20338;-83
2022/04/28 07:51:26;;;;;;;11.45;3.40;;;11.30;99.90;;;;;;4920288;29;20186;-84
2022/04/28 07:53:52;;;;;;;12.60;3.28;;;11.30;99.90;;;;;;4919778;29;20174;-85
2022/04/28 07:56:20;;;;;;;10.32;3.70;;;11.50;99.90;;;;;;4920170;29;20178;-84
2022/04/28 07:58:46;;;;;;;9.52;3.63;;;11.60;99.90;;;;;;4918791;29;20207;-83
2022/04/28 08:01:12;;;;;;;10.55;3.40;;;11.70;99.90;;;;;;4919357;29;20178;-84
2022/04/28 08:03:39;;;;;;;8.77;3.10;;;11.70;99.90;;;;;;4918747;29;20270;-83
2022/04/28 08:06:05;;;;;;;10.60;3.88;;;11.80;99.90;;;;;;4920295;29;20332;-84
2022/04/28 08:08:33;;;;;;;13.38;3.95;;;11.90;99.90;;;;;;4918696;29;20556;-83
2022/04/28 08:11:00;;;;;;;12.68;4.03;;;11.80;99.90;;;;;;4919141;29;20187;-84
2022/04/28 08:13:26;;;;;;;10.77;3.80;;;11.90;99.90;;;;;;4920411;29;20195;-82
2022/04/28 08:15:53;;;;;;;8.82;3.78;;;12.00;99.90;;;;;;4920364;29;20558;-84
2022/04/28 08:18:19;;;;;;;17.15;4.10;;;12.10;99.90;;;;;;4918385;29;20189;-83
2022/04/28 08:20:44;;;;;;;14.10;4.25;;;12.20;99.90;;;;;;4917917;29;20178;-84
2022/04/28 08:23:10;;;;;;;10.68;4.70;;;12.30;99.90;;;;;;4919047;29;20194;-83
2022/04/28 08:25:36;;;;;;;11.85;4.80;;;12.30;99.90;;;;;;4918766;29;20214;-83
2022/04/28 08:28:01;;;;;;;9.85;4.20;;;12.40;99.90;;;;;;4930495;29;20186;-84
2022/04/28 08:30:27;;;;;;;9.60;4.20;;;12.40;99.90;;;;;;4920558;29;20273;-86
2022/04/28 08:32:53;;;;;;;11.93;4.65;;;12.50;99.90;;;;;;4918854;29;20209;-85
2022/04/28 08:35:18;;;;;;;9.95;3.85;;;12.40;99.90;;;;;;4929652;29;20186;-84
2022/04/28 08:37:44;;;;;;;11.07;4.55;;;12.60;99.90;;;;;;4939134;29;20175;-86
2022/04/28 08:40:10;;;;;;;9.27;3.85;;;12.80;99.90;;;;;;4938023;29;20624;-85
2022/04/28 08:42:37;;;;;;;8.52;4.43;;;12.90;99.90;;;;;;4939056;29;20182;-85
2022/04/28 08:45:04;;;;;;;13.18;5.03;;;13.00;99.90;;;;;;4937879;29;20317;-86
2022/04/28 08:47:30;;;;;;;13.45;5.03;;;13.10;99.90;;;;;;4937720;29;20675;-87
2022/04/28 08:49:56;;;;;;;7.78;4.13;;;13.10;99.90;;;;;;4919941;29;20541;-84
2022/04/28 08:52:25;;;;;;;8.70;4.45;;;13.20;99.90;;;;;;4929288;29;20194;-85
2022/04/28 08:54:53;;;;;;;10.88;5.28;;;13.40;99.90;;;;;;4899992;29;20264;-87
2022/04/28 08:57:19;;;;;;;9.23;4.63;;;13.40;99.90;;;;;;4900127;29;20304;-86
2022/04/28 08:59:46;;;;;;;9.07;5.22;;;13.50;99.50;;;;;;4903166;29;20618;-85
2022/04/28 09:02:13;;;;;;;14.48;5.55;;;13.50;99.00;;;;;;4923177;29;20274;-85
2022/04/28 09:04:39;;;;;;;12.15;5.10;;;13.40;98.50;;;;;;4903562;29;20274;-86
2022/04/28 09:07:07;;;;;;;8.43;4.68;;;13.50;99.20;;;;;;4902881;29;20309;-85
2022/04/28 09:09:33;;;;;;;12.05;4.75;;;13.50;98.70;;;;;;4917510;29;20214;-83
2022/04/28 09:12:02;;;;;;;12.65;5.07;;;13.50;98.50;;;;;;4918618;29;20257;-84
2022/04/28 09:14:28;;;;;;;13.55;4.82;;;13.50;98.30;;;;;;4917091;29;20182;-84
2022/04/28 09:17:02;;;;;;;14.02;5.40;;;13.60;99.40;;;;;;4917468;29;20230;-83
2022/04/28 09:19:32;;;;;;;13.57;4.93;;;13.70;97.90;;;;;;4916699;29;20242;-87
2022/04/28 09:22:05;;;;;;;12.45;5.13;;;13.70;99.60;;;;;;4911726;29;20178;-85
2022/04/28 09:24:31;;;;;;;10.45;4.88;;;13.80;99.90;;;;;;4917108;29;20515;-85
2022/04/28 09:26:57;;;;;;;10.65;5.30;;;13.90;99.90;;;;;;4917016;29;20250;-85
2022/04/28 09:29:29;;;;;;;9.45;4.63;;;14.20;98.00;;;;;;4917193;29;20650;-85
2022/04/28 09:31:55;;;;;;;11.77;5.03;;;14.30;97.90;;;;;;4915885;29;20186;-85
2022/04/28 09:34:23;;;;;;;11.70;6.00;;;14.40;97.00;;;;;;4916264;29;20665;-84
2022/04/28 09:36:50;;;;;;;12.65;5.50;;;14.50;99.60;;;;;;4917062;29;20510;-84
2022/04/28 09:44:56;;;;;;;10.18;5.18;;;14.60;97.00;;;;;;4918094;29;20199;-84
2022/04/28 09:47:23;;;;;;;15.05;5.38;;;14.60;96.90;;;;;;4916666;29;20179;-86
2022/04/28 09:49:53;;;;;;;13.30;5.68;;;14.80;97.20;;;;;;4916208;29;20536;-85
2022/04/28 09:52:20;;;;;;;15.80;5.53;;;15.00;98.00;;;;;;4917444;29;20234;-85
2022/04/28 09:54:50;;;;;;;10.15;5.57;;;15.00;97.50;;;;;;4916925;29;20187;-85
2022/04/28 09:57:18;;;;;;;11.23;5.50;;;15.10;97.00;;;;;;4916846;29;20610;-85
2022/04/28 09:59:45;;;;;;;12.23;5.32;;;15.00;98.60;;;;;;4917275;29;20181;-84
2022/04/28 10:02:15;;;;;;;10.75;5.82;;;15.10;97.90;;;;;;4930102;29;20185;-84
2022/04/28 10:04:44;;;;;;;12.77;6.43;;;15.30;97.70;;;;;;4936469;29;20166;-83
2022/04/28 10:07:14;;;;;;;11.00;6.25;;;15.20;96.80;;;;;;4895693;29;1174361;-83
2022/04/28 10:09:41;;;;;;;9.77;6.38;;;15.20;96.00;;;;;;4936081;29;20217;-88
2022/04/28 10:12:08;;;;;;;12.80;5.97;;;15.30;96.30;;;;;;4937699;29;20372;-84
2022/04/28 10:14:39;;;;;;;14.82;6.70;;;15.40;97.40;;;;;;4927960;29;20186;-83
2022/04/28 10:17:10;;;;;;;11.15;6.40;;;15.50;95.00;;;;;;4916532;29;20179;-83
2022/04/28 10:19:42;;;;;;;11.13;7.32;;;15.40;95.10;;;;;;4916489;29;20226;-85
2022/04/28 10:22:16;;;;;;;10.73;6.82;;;15.50;93.80;;;;;;4927606;29;20272;-87
2022/04/28 10:33:17;;;;;;;11.25;7.18;;;15.70;96.10;;;;;;4916171;29;20193;-85
2022/04/28 10:35:54;;;;;;;14.82;7.50;;;15.70;93.60;;;;;;4916269;29;20500;-84
2022/04/28 10:38:31;;;;;;;12.55;7.57;;;15.70;94.50;;;;;;4918001;29;20179;-83
2022/04/28 10:41:05;;;;;;;11.48;7.28;;;15.80;94.10;;;;;;4918265;29;20162;-82
2022/04/28 10:43:33;;;;;;;11.55;6.47;;;15.80;96.60;;;;;;4917467;29;20166;-84
2022/04/28 10:46:01;;;;;;;13.13;7.05;;;16.10;97.20;;;;;;4917353;29;20220;-82
2022/04/28 10:48:30;;;;;;;12.70;7.20;;;16.40;93.00;;;;;;4918503;29;20602;-86
2022/04/28 10:51:04;;;;;;;9.88;6.45;;;16.30;93.40;;;;;;4919684;29;20198;-84
2022/04/28 10:53:31;;;;;;;10.82;6.32;;;16.20;91.30;;;;;;4920483;29;20490;-85
2022/04/28 10:56:07;;;;;;;15.55;6.32;;;16.20;92.10;;;;;;4927287;29;20189;-84
2022/04/28 10:58:33;;;;;;;11.43;6.78;;;16.30;93.10;;;;;;4940943;29;20680;-83
2022/04/28 11:01:00;;;;;;;11.00;6.25;;;16.20;95.00;;;;;;4940541;29;20276;-82
2022/04/28 11:03:55;;;;;;;9.32;6.10;;;16.40;93.80;;;;;;4931156;29;20190;-83
2022/04/28 11:06:24;;;;;;;9.00;5.88;;;16.10;92.20;;;;;;4919800;29;20227;-84
2022/04/28 11:08:55;;;;;;;14.07;6.72;;;16.00;92.00;;;;;;4920678;29;20250;-91
2022/04/28 11:11:21;;;;;;;10.70;6.03;;;15.90;94.20;;;;;;4920139;29;20289;-82
2022/04/28 11:13:57;;;;;;;8.65;5.88;;;16.20;94.40;;;;;;4920265;29;20194;-86
2022/04/28 11:16:23;;;;;;;11.30;6.53;;;16.40;93.60;;;;;;4920342;29;20196;-83
2022/04/28 11:18:49;;;;;;;13.50;5.90;;;16.40;92.20;;;;;;4927662;29;20591;-83
2022/04/28 11:21:16;;;;;;;9.77;5.72;;;16.40;94.00;;;;;;4938998;29;20213;-83
2022/04/28 11:23:46;;;;;;;12.52;5.70;;;16.60;92.90;;;;;;4938697;29;20182;-83
2022/04/28 11:26:13;;;;;;;9.43;5.80;;;16.80;93.90;;;;;;4939996;29;20159;-83
2022/04/28 11:28:40;;;;;;;17.10;5.35;;;16.90;92.20;;;;;;4938590;29;20301;-83
2022/04/28 11:31:08;;;;;;;12.27;5.03;;;17.00;91.60;;;;;;4939141;29;20296;-84
2022/04/28 11:33:34;;;;;;;11.65;5.70;;;17.00;92.00;;;;;;4938637;29;20178;-83
2022/04/28 11:36:01;;;;;;;13.43;6.15;;;16.90;92.40;;;;;;4922780;29;20243;-82
2022/04/28 11:38:32;;;;;;;12.52;5.97;;;17.10;92.80;;;;;;4919677;29;20527;-84
2022/04/28 11:41:03;;;;;;;11.00;5.80;;;17.10;94.10;;;;;;4920074;29;20485;-84
2022/04/28 11:43:36;;;;;;;9.57;5.15;;;17.30;91.10;;;;;;4919697;29;20540;-83
2022/04/28 11:46:02;;;;;;;9.07;5.18;;;17.10;92.20;;;;;;4919036;29;20261;-83
2022/04/28 11:48:32;;;;;;;10.98;5.05;;;17.20;92.30;;;;;;4923744;29;20605;-84
2022/04/28 11:51:05;;;;;;;9.95;4.78;;;17.20;90.70;;;;;;4938578;29;20508;-82
2022/04/28 11:53:42;;;;;;;12.35;4.68;;;17.20;90.30;;;;;;4923325;29;20194;-88
2022/04/28 11:56:20;;;;;;;8.98;4.78;;;17.20;93.00;;;;;;4919932;29;20171;-83
2022/04/28 11:58:51;;;;;;;9.10;4.55;;;17.20;93.20;;;;;;4918787;29;20261;-84
2022/04/28 12:01:19;;;;;;;7.70;3.85;;;17.40;93.10;;;;;;4917289;29;20664;-84
2022/04/28 12:03:54;;;;;;;9.75;4.50;;;17.50;90.50;;;;;;4918721;29;20190;-83
2022/04/28 12:06:21;;;;;;;10.65;4.47;;;17.70;90.70;;;;;;4919481;29;20282;-83
2022/04/28 12:08:56;;;;;;;10.43;4.70;;;17.70;91.80;;;;;;4920069;29;20285;-83
2022/04/28 12:14:23;;;;;;;9.18;4.10;;;17.90;91.70;;;;;;4920486;29;20238;-86
2022/04/28 12:20:00;;;;;;;8.95;4.03;;;17.90;91.90;;;;;;4920158;29;20197;-83
2022/04/28 12:22:37;;;;;;;9.75;4.53;;;18.10;92.10;;;;;;4918561;29;20193;-84
2022/04/28 12:25:11;;;;;;;10.73;5.30;;;18.20;91.00;;;;;;4918683;29;20183;-83
2022/04/28 12:27:48;;;;;;;10.27;4.32;;;18.30;89.60;;;;;;4934687;29;20644;-83
2022/04/28 12:30:20;;;;;;;7.20;4.03;;;18.50;90.60;;;;;;4930748;29;20204;-86
2022/04/28 12:32:54;;;;;;;9.43;4.85;;;18.60;85.50;;;;;;4917681;29;20250;-85
2022/04/28 12:35:26;;;;;;;9.20;4.05;;;18.20;84.10;;;;;;4919431;29;20270;-82
2022/04/28 12:37:56;;;;;;;11.15;4.60;;;17.80;86.90;;;;;;4918751;29;20181;-83
2022/04/28 12:40:23;;;;;;;9.63;4.53;;;17.50;86.20;;;;;;4919890;29;20186;-82
2022/04/28 12:42:50;;;;;;;7.85;4.25;;;17.60;90.50;;;;;;4918641;29;20190;-84
2022/04/28 12:45:47;;;;;;;10.57;4.82;;;17.90;85.40;;;;;;4917981;29;20499;-82
2022/04/28 12:48:31;;;;;;;8.63;3.95;;;17.60;85.30;;;;;;4918529;29;20186;-83
2022/04/28 12:51:26;;;;;;;9.05;3.90;;;17.70;90.30;;;;;;4917239;29;20193;-82
2022/04/28 12:53:54;;;;;;;8.40;3.95;;;17.80;87.20;;;;;;4901270;29;20258;-83
2022/04/28 12:56:31;;;;;;;8.02;3.75;;;18.10;84.70;;;;;;4917930;29;20162;-83
2022/04/28 12:58:59;;;;;;;11.13;3.95;;;17.90;84.40;;;;;;4919024;29;20507;-83
2022/04/28 13:01:26;;;;;;;10.20;3.80;;;17.80;83.60;;;;;;4917049;29;20217;-82
2022/04/28 13:04:02;;;;;;;8.18;4.13;;;17.80;83.80;;;;;;4916748;29;20201;-82
2022/04/28 13:06:30;;;;;;;8.70;3.80;;;17.80;84.50;;;;;;4899395;29;20287;-82
2022/04/28 13:08:58;;;;;;;13.27;4.13;;;17.80;85.70;;;;;;4898212;29;20242;-82
2022/04/28 13:11:26;;;;;;;10.52;4.05;;;17.80;85.50;;;;;;4910425;29;20238;-82
2022/04/28 13:13:54;;;;;;;11.23;4.22;;;18.10;87.20;;;;;;4918904;29;20198;-84
2022/04/28 13:16:20;;;;;;;9.85;4.32;;;18.40;89.50;;;;;;4918000;29;20217;-83
2022/04/28 13:18:46;;;;;;;8.55;4.07;;;18.50;85.90;;;;;;4919167;29;20190;-85
2022/04/28 13:21:13;;;;;;;7.32;3.63;;;18.60;85.30;;;;;;4918904;29;20202;-84
2022/04/28 13:23:39;;;;;;;9.82;4.40;;;18.60;86.00;;;;;;4940284;29;20190;-83
2022/04/28 13:26:07;;;;;;;10.05;4.32;;;18.60;89.30;;;;;;4937102;29;20690;-84